createdAt,value
2022-08-07T00:01:44.099Z,85.73
2022-08-07T00:04:04.740Z,85.39
2022-08-07T00:06:33.513Z,86.42
2022-08-07T00:09:16.382Z,86.30
2022-08-07T00:11:54.062Z,86.37
2022-08-07T00:14:30.125Z,86.26
2022-08-07T00:17:01.708Z,85.76
2022-08-07T00:19:34.028Z,85.43
2022-08-07T00:22:34.555Z,85.13
2022-08-07T00:25:06.992Z,86.33
2022-08-07T00:27:52.995Z,86.00
2022-08-07T00:30:26.528Z,85.97
2022-08-07T00:32:56.346Z,86.72
2022-08-07T00:35:23.208Z,86.38
2022-08-07T00:37:50.014Z,86.87
2022-08-07T00:40:17.578Z,87.55
2022-08-07T00:43:04.120Z,87.60
2022-08-07T00:45:38.041Z,87.47
2022-08-07T00:48:10.336Z,87.65
2022-08-07T00:50:50.333Z,86.70
2022-08-07T00:53:20.242Z,86.48
2022-08-07T00:56:00.347Z,87.01
2022-08-07T00:58:29.160Z,87.62
2022-08-07T01:00:55.820Z,87.49
2022-08-07T01:03:54.544Z,87.11
2022-08-07T01:06:09.482Z,87.22
2022-08-07T01:08:43.186Z,87.89
2022-08-07T01:12:27.709Z,87.62
2022-08-07T01:14:08.798Z,88.36
2022-08-07T01:16:35.939Z,86.95
2022-08-07T01:19:03.715Z,87.85
2022-08-07T01:21:30.629Z,87.58
2022-08-07T01:23:57.813Z,87.44
2022-08-07T01:26:26.076Z,87.87
2022-08-07T01:28:53.264Z,87.75
2022-08-07T01:31:20.056Z,86.85
2022-08-07T01:33:55.675Z,87.32
2022-08-07T01:36:33.441Z,88.65
2022-08-07T01:39:00.832Z,88.22
2022-08-07T01:41:27.549Z,87.83
2022-08-07T01:43:54.159Z,88.33
2022-08-07T01:46:21.403Z,87.52
2022-08-07T01:48:48.215Z,87.74
2022-08-07T01:52:01.191Z,87.33
2022-08-07T01:54:12.119Z,87.44
2022-08-07T01:56:43.753Z,88.23
2022-08-07T01:59:38.214Z,88.10
2022-08-07T02:03:12.482Z,88.20
2022-08-07T02:05:09.292Z,87.85
2022-08-07T02:07:53.598Z,87.58
2022-08-07T02:10:23.365Z,87.94
2022-08-07T02:12:50.425Z,88.47
2022-08-07T02:15:20.455Z,88.30
2022-08-07T02:17:51.784Z,87.41
2022-08-07T02:20:23.295Z,87.79
2022-08-07T02:22:55.318Z,87.68
2022-08-07T02:25:22.011Z,88.46
2022-08-07T02:28:08.613Z,87.63
2022-08-07T02:30:38.430Z,87.42
2022-08-07T02:33:09.512Z,88.17
2022-08-07T02:36:29.722Z,88.64
2022-08-07T02:38:33.565Z,89.02
2022-08-07T02:41:01.067Z,88.89
2022-08-07T02:43:30.513Z,88.96
2022-08-07T02:46:01.943Z,88.87
2022-08-07T02:48:54.920Z,89.07
2022-08-07T02:51:42.001Z,89.45
2022-08-07T02:54:09.309Z,89.13
2022-08-07T02:56:35.932Z,88.48
2022-08-07T02:59:03.881Z,88.83
2022-08-07T03:01:36.023Z,88.81
2022-08-07T03:04:07.154Z,88.55
2022-08-07T03:06:38.964Z,88.00
2022-08-07T03:09:05.966Z,88.88
2022-08-07T03:11:38.418Z,88.83
2022-08-07T03:14:05.713Z,88.63
2022-08-07T03:16:33.546Z,88.50
2022-08-07T03:19:00.228Z,89.31
2022-08-07T03:21:28.125Z,88.00
2022-08-07T03:24:17.805Z,88.34
2022-08-07T03:26:43.141Z,88.52
2022-08-07T03:29:24.616Z,88.85
2022-08-07T03:31:54.247Z,88.29
2022-08-07T03:34:22.942Z,88.29
2022-08-07T03:36:54.166Z,88.76
2022-08-07T03:39:58.895Z,87.98
2022-08-07T03:42:07.626Z,89.28
2022-08-07T03:44:36.086Z,88.58
2022-08-07T03:47:13.045Z,89.19
2022-08-07T03:49:40.280Z,89.07
2022-08-07T03:52:07.604Z,88.32
2022-08-07T03:54:54.225Z,88.24
2022-08-07T03:58:08.877Z,88.12
2022-08-07T04:00:09.053Z,88.46
2022-08-07T04:02:41.199Z,88.98
2022-08-07T04:05:08.195Z,88.03
2022-08-07T04:07:36.234Z,88.55
2022-08-07T04:10:15.737Z,88.60
2022-08-07T04:12:47.286Z,88.66
2022-08-07T04:15:13.934Z,88.62
2022-08-07T04:18:30.769Z,87.69
2022-08-07T04:20:29.466Z,88.15
2022-08-07T04:23:01.383Z,88.39
2022-08-07T04:25:29.215Z,88.21
2022-08-07T04:27:59.158Z,88.57
2022-08-07T04:30:43.860Z,88.04
2022-08-07T04:33:15.389Z,89.25
2022-08-07T04:35:44.345Z,89.27
2022-08-07T04:38:17.953Z,89.20
2022-08-07T04:40:51.714Z,88.64
2022-08-07T04:44:11.763Z,88.60
2022-08-07T04:46:29.472Z,88.01
2022-08-07T04:49:24.609Z,88.77
2022-08-07T04:52:14.828Z,89.21
2022-08-07T04:54:54.303Z,88.30
2022-08-07T04:58:10.246Z,88.44
2022-08-07T05:00:30.234Z,88.75
2022-08-07T05:03:31.130Z,88.72
2022-08-07T05:06:01.343Z,88.99
2022-08-07T05:09:01.540Z,88.44
2022-08-07T05:11:57.388Z,89.77
2022-08-07T05:14:56.076Z,88.87
2022-08-07T05:17:51.830Z,89.57
2022-08-07T05:20:09.658Z,88.71
2022-08-07T05:22:36.690Z,88.97
2022-08-07T05:25:08.454Z,88.49
2022-08-07T05:28:16.044Z,89.29
2022-08-07T05:30:30.240Z,89.08
2022-08-07T05:33:00.087Z,89.08
2022-08-07T05:35:33.518Z,88.67
2022-08-07T05:38:09.661Z,88.50
2022-08-07T05:40:50.559Z,88.61
2022-08-07T05:44:08.472Z,89.23
2022-08-07T05:46:06.610Z,89.67
2022-08-07T05:48:33.268Z,88.96
2022-08-07T05:51:01.353Z,89.81
2022-08-07T05:54:12.901Z,89.47
2022-08-07T05:56:16.180Z,88.94
2022-08-07T05:58:52.496Z,88.99
2022-08-07T06:01:19.716Z,89.27
2022-08-07T06:03:56.422Z,87.96
2022-08-07T06:06:23.612Z,87.83
2022-08-07T06:08:56.723Z,88.05
2022-08-07T06:11:24.944Z,86.75
2022-08-07T06:14:11.446Z,86.52
2022-08-07T06:16:38.299Z,86.50
2022-08-07T06:19:06.452Z,86.13
2022-08-07T06:22:14.715Z,86.58
2022-08-07T06:24:45.541Z,86.22
2022-08-07T06:27:07.236Z,86.49
2022-08-07T06:29:34.569Z,85.75
2022-08-07T06:32:05.630Z,83.63
2022-08-07T06:34:33.506Z,84.05
2022-08-07T06:37:02.656Z,84.48
2022-08-07T06:40:15.989Z,83.61
2022-08-07T06:42:34.763Z,81.88
2022-08-07T06:45:02.035Z,83.52
2022-08-07T06:47:28.799Z,83.44
2022-08-07T06:50:15.068Z,84.04
2022-08-07T06:52:54.089Z,83.31
2022-08-07T06:56:00.154Z,84.73
2022-08-07T06:58:16.657Z,83.83
2022-08-07T07:00:47.904Z,83.20
2022-08-07T07:03:26.301Z,83.16
2022-08-07T07:06:11.101Z,81.33
2022-08-07T07:08:39.964Z,80.67
2022-08-07T07:12:08.256Z,79.60
2022-08-07T07:14:02.340Z,78.18
2022-08-07T07:16:31.038Z,77.26
2022-08-07T07:19:11.548Z,77.11
2022-08-07T07:22:04.569Z,75.39
2022-08-07T07:24:36.961Z,74.33
2022-08-07T07:27:04.616Z,65.69
2022-08-07T07:29:56.456Z,65.03
2022-08-07T07:32:22.694Z,64.86
2022-08-07T07:34:51.646Z,60.44
2022-08-07T07:37:45.480Z,61.43
2022-08-07T07:40:10.547Z,56.62
2022-08-07T07:42:41.657Z,55.90
2022-08-07T07:45:09.302Z,54.01
2022-08-07T07:47:42.907Z,51.32
2022-08-07T07:50:36.253Z,51.00
2022-08-07T07:53:20.258Z,52.43
2022-08-07T07:55:56.263Z,51.74
2022-08-07T07:58:25.688Z,51.51
2022-08-07T08:00:54.510Z,44.69
2022-08-07T08:04:06.144Z,45.68
2022-08-07T08:06:08.406Z,44.80
2022-08-07T08:08:41.806Z,45.09
2022-08-07T08:11:16.206Z,42.00
2022-08-07T08:13:54.149Z,42.63
2022-08-07T08:16:24.960Z,43.82
2022-08-07T08:18:51.938Z,45.47
2022-08-07T08:21:18.553Z,43.26
2022-08-07T08:23:45.846Z,39.19
2022-08-07T08:26:12.989Z,40.02
2022-08-07T08:28:44.889Z,40.35
2022-08-07T08:31:22.807Z,39.64
2022-08-07T08:33:57.925Z,39.81
2022-08-07T08:36:29.794Z,39.95
2022-08-07T08:38:57.118Z,38.19
2022-08-07T08:41:57.170Z,41.12
2022-08-07T08:44:29.431Z,38.27
2022-08-07T08:47:05.255Z,37.30
2022-08-07T08:49:46.306Z,36.57
2022-08-07T08:52:54.053Z,39.41
2022-08-07T08:55:55.167Z,38.62
2022-08-07T08:58:38.326Z,36.58
2022-08-07T09:01:18.466Z,34.27
2022-08-07T09:03:55.206Z,34.52
2022-08-07T09:06:42.725Z,35.91
2022-08-07T09:09:44.313Z,35.49
2022-08-07T09:12:37.691Z,34.58
2022-08-07T09:16:20.482Z,36.10
2022-08-07T09:18:16.750Z,32.93
2022-08-07T09:21:13.813Z,33.85
2022-08-07T09:24:33.477Z,35.71
2022-08-07T09:27:21.807Z,31.88
2022-08-07T09:30:06.064Z,34.48
2022-08-07T09:32:49.643Z,31.61
2022-08-07T09:36:05.246Z,33.08
2022-08-07T09:38:05.465Z,35.58
2022-08-07T09:41:07.049Z,31.97
2022-08-07T09:43:40.371Z,33.43
2022-08-07T09:47:24.823Z,30.97
2022-08-07T09:50:19.032Z,32.59
2022-08-07T09:53:12.852Z,32.99
2022-08-07T09:56:19.802Z,33.96
2022-08-07T09:59:44.622Z,33.29
2022-08-07T10:02:41.105Z,32.15
2022-08-07T10:05:59.101Z,32.15
2022-08-07T10:08:44.076Z,32.48
2022-08-07T10:12:01.611Z,32.26
2022-08-07T10:15:08.445Z,33.84
2022-08-07T10:18:19.829Z,34.85
2022-08-07T10:21:04.484Z,31.78
2022-08-07T10:24:06.964Z,33.02
2022-08-07T10:27:01.635Z,31.90
2022-08-07T10:29:51.747Z,32.39
2022-08-07T10:32:59.606Z,30.24
2022-08-07T10:35:53.465Z,31.41
2022-08-07T10:38:42.083Z,30.86
2022-08-07T10:41:46.396Z,32.98
2022-08-07T10:44:07.961Z,33.81
2022-08-07T10:46:51.309Z,32.69
2022-08-07T10:49:49.485Z,32.20
2022-08-07T10:52:18.804Z,32.05
2022-08-07T10:55:00.933Z,35.63
2022-08-07T10:57:46.571Z,33.00
2022-08-07T11:00:39.622Z,33.48
2022-08-07T11:03:14.589Z,34.51
2022-08-07T11:06:06.382Z,31.70
2022-08-07T11:08:55.019Z,32.97
2022-08-07T11:11:29.901Z,29.13
2022-08-07T11:14:45.968Z,32.51
2022-08-07T11:18:04.556Z,31.51
2022-08-07T11:20:34.155Z,33.62
2022-08-07T11:23:09.647Z,34.78
2022-08-07T11:25:42.437Z,33.29
2022-08-07T11:28:18.399Z,32.97
2022-08-07T11:31:15.880Z,35.82
2022-08-07T11:33:53.770Z,33.27
2022-08-07T11:36:53.583Z,34.61
2022-08-07T11:39:58.994Z,33.65
2022-08-07T11:42:55.454Z,36.49
2022-08-07T11:45:49.790Z,37.43
2022-08-07T11:48:35.483Z,34.14
2022-08-07T11:51:10.899Z,33.94
2022-08-07T11:54:34.899Z,33.44
2022-08-07T11:57:14.266Z,34.54
2022-08-07T12:00:18.432Z,33.90
2022-08-07T12:03:44.892Z,32.83
2022-08-07T12:06:37.827Z,30.91
2022-08-07T12:09:07.449Z,31.67
2022-08-07T12:11:43.279Z,34.14
2022-08-07T12:14:27.395Z,32.26
2022-08-07T12:17:00.460Z,33.93
2022-08-07T12:20:03.443Z,33.16
2022-08-07T12:22:58.458Z,35.00
2022-08-07T12:26:06.041Z,36.28
2022-08-07T12:28:30.827Z,33.62
2022-08-07T12:31:06.641Z,33.97
2022-08-07T12:34:01.364Z,32.67
2022-08-07T12:36:32.803Z,32.96
2022-08-07T12:39:09.369Z,32.27
2022-08-07T12:41:52.427Z,32.97
2022-08-07T12:44:19.200Z,35.52
2022-08-07T12:47:30.692Z,32.54
2022-08-07T12:50:34.358Z,35.00
2022-08-07T12:53:17.765Z,31.69
2022-08-07T12:56:12.745Z,34.33
2022-08-07T12:58:43.800Z,33.77
2022-08-07T13:01:40.594Z,34.00
2022-08-07T13:05:00.998Z,35.69
2022-08-07T13:08:13.464Z,34.58
2022-08-07T13:10:45.678Z,32.07
2022-08-07T13:13:50.235Z,33.52
2022-08-07T13:16:46.657Z,35.67
2022-08-07T13:19:50.620Z,31.90
2022-08-07T13:22:28.117Z,33.96
2022-08-07T13:25:00.090Z,35.65
2022-08-07T13:27:33.240Z,35.54
2022-08-07T13:30:19.630Z,34.89
2022-08-07T13:34:31.413Z,31.12
2022-08-07T13:36:17.874Z,33.41
2022-08-07T13:38:47.982Z,33.76
2022-08-07T13:41:42.376Z,33.60
2022-08-07T13:44:18.603Z,34.69
2022-08-07T13:46:53.773Z,33.84
2022-08-07T13:50:33.659Z,35.28
2022-08-07T13:54:49.067Z,34.32
2022-08-07T13:57:23.933Z,34.04
2022-08-07T13:59:53.074Z,30.93
2022-08-07T14:02:39.589Z,31.86
2022-08-07T14:05:15.864Z,31.70
2022-08-07T14:07:59.334Z,32.44
2022-08-07T14:10:33.085Z,33.06
2022-08-07T14:13:08.443Z,31.71
2022-08-07T14:15:39.310Z,32.10
2022-08-07T14:18:15.989Z,32.59
2022-08-07T14:22:41.069Z,32.61
2022-08-07T14:24:09.263Z,34.53
2022-08-07T14:26:50.541Z,33.24
2022-08-07T14:30:07.555Z,34.27
2022-08-07T14:32:16.320Z,31.83
2022-08-07T14:34:46.747Z,33.99
2022-08-07T14:37:16.314Z,35.87
2022-08-07T14:40:16.376Z,35.87
2022-08-07T14:42:31.451Z,35.60
2022-08-07T14:44:59.943Z,35.32
2022-08-07T14:47:47.081Z,33.28
2022-08-07T14:50:14.082Z,34.99
2022-08-07T14:52:40.737Z,34.80
2022-08-07T14:55:08.888Z,35.10
2022-08-07T14:57:58.440Z,34.12
2022-08-07T15:00:30.418Z,35.25
2022-08-07T15:03:19.500Z,36.14
2022-08-07T15:05:54.225Z,34.95
2022-08-07T15:08:50.168Z,34.54
2022-08-07T15:11:54.456Z,36.99
2022-08-07T15:14:15.265Z,35.05
2022-08-07T15:16:54.774Z,36.22
2022-08-07T15:20:31.468Z,37.36
2022-08-07T15:22:23.096Z,35.67
2022-08-07T15:25:13.286Z,36.82
2022-08-07T15:28:33.173Z,36.14
2022-08-07T15:30:31.387Z,37.62
2022-08-07T15:33:03.890Z,36.97
2022-08-07T15:36:01.927Z,36.69
2022-08-07T15:38:30.290Z,35.83
2022-08-07T15:41:23.008Z,36.75
2022-08-07T15:43:59.489Z,36.07
2022-08-07T15:46:31.095Z,35.84
2022-08-07T15:54:39.658Z,37.15
2022-08-07T15:57:28.138Z,36.76
2022-08-07T15:59:59.430Z,39.02
2022-08-07T16:02:33.127Z,37.06
2022-08-07T16:05:01.268Z,37.67
2022-08-07T16:08:31.755Z,37.74
2022-08-07T16:10:21.802Z,38.79
2022-08-07T16:13:17.991Z,39.54
2022-08-07T16:16:43.060Z,38.40
2022-08-07T16:19:42.934Z,39.20
2022-08-07T16:22:37.726Z,38.59
2022-08-07T16:25:54.379Z,39.01
2022-08-07T16:29:18.660Z,39.44
2022-08-07T16:31:51.197Z,39.91
2022-08-07T16:34:33.270Z,41.56
2022-08-07T16:38:06.471Z,41.51
2022-08-07T16:41:01.518Z,40.43
2022-08-07T16:44:03.930Z,41.00
2022-08-07T16:47:07.897Z,41.36
2022-08-07T16:50:28.094Z,41.85
2022-08-07T16:52:52.803Z,41.37
2022-08-07T16:55:22.394Z,41.73
2022-08-07T16:58:04.141Z,42.52
2022-08-07T17:00:38.394Z,43.29
2022-08-07T17:03:59.633Z,43.12
2022-08-07T17:06:42.527Z,43.23
2022-08-07T17:10:07.382Z,44.12
2022-08-07T17:12:35.611Z,44.39
2022-08-07T17:15:07.035Z,44.18
2022-08-07T17:17:46.925Z,45.45
2022-08-07T17:20:32.664Z,43.63
2022-08-07T17:23:14.636Z,43.97
2022-08-07T17:26:23.287Z,45.67
2022-08-07T17:30:15.975Z,45.84
2022-08-07T17:32:30.445Z,45.61
2022-08-07T17:35:51.177Z,45.48
2022-08-07T17:38:33.245Z,45.79
2022-08-07T17:42:02.005Z,47.61
2022-08-07T17:44:41.437Z,46.99
2022-08-07T17:47:38.602Z,48.97
2022-08-07T17:50:42.608Z,48.66
2022-08-07T17:54:01.552Z,47.19
2022-08-07T17:56:15.309Z,50.80
2022-08-07T17:58:56.805Z,50.66
2022-08-07T18:01:56.803Z,50.64
2022-08-07T18:04:24.654Z,48.33
2022-08-07T18:07:37.687Z,49.58
2022-08-07T18:10:32.541Z,50.58
2022-08-07T18:12:59.766Z,53.62
2022-08-07T18:15:32.600Z,54.52
2022-08-07T18:18:45.627Z,54.43
2022-08-07T18:21:57.911Z,54.52
2022-08-07T18:24:28.461Z,53.98
2022-08-07T18:27:21.064Z,56.19
2022-08-07T18:30:36.876Z,57.81
2022-08-07T18:33:30.257Z,58.48
2022-08-07T18:36:09.281Z,59.02
2022-08-07T18:38:58.723Z,59.22
2022-08-07T18:41:45.241Z,60.67
2022-08-07T18:44:24.769Z,61.45
2022-08-07T18:47:00.809Z,61.26
2022-08-07T18:50:30.515Z,62.09
2022-08-07T18:52:52.526Z,63.29
2022-08-07T18:55:43.627Z,63.88
2022-08-07T18:58:42.385Z,63.81
2022-08-07T19:02:33.444Z,64.91
2022-08-07T19:04:37.208Z,63.73
2022-08-07T19:07:16.477Z,66.10
2022-08-07T19:09:59.681Z,65.63
2022-08-07T19:12:33.172Z,65.63
2022-08-07T19:16:03.158Z,67.33
2022-08-07T19:18:11.637Z,67.49
2022-08-07T19:21:09.718Z,66.40
2022-08-07T19:23:58.373Z,66.51
2022-08-07T19:26:29.586Z,67.59
2022-08-07T19:30:59.992Z,68.44
2022-08-07T19:32:10.679Z,68.90
2022-08-07T19:34:38.644Z,69.98
2022-08-07T19:37:09.831Z,69.30
2022-08-07T19:39:57.895Z,69.23
2022-08-07T19:42:30.746Z,69.36
2022-08-07T19:45:01.192Z,69.19
2022-08-07T19:47:36.381Z,70.38
2022-08-07T19:50:44.485Z,70.84
2022-08-07T19:52:58.769Z,71.38
2022-08-07T19:55:26.004Z,71.76
2022-08-07T19:58:15.291Z,71.89
2022-08-07T20:00:55.475Z,71.74
2022-08-07T20:03:35.670Z,71.77
2022-08-07T20:06:03.943Z,72.18
2022-08-07T20:08:33.322Z,72.16
2022-08-07T20:11:03.707Z,72.88
2022-08-07T20:13:46.392Z,72.34
2022-08-07T20:16:31.954Z,72.56
2022-08-07T20:19:04.706Z,73.36
2022-08-07T20:21:41.702Z,74.02
2022-08-07T20:24:28.443Z,74.92
2022-08-07T20:26:57.434Z,73.73
2022-08-07T20:29:48.702Z,74.16
2022-08-07T20:32:23.043Z,74.17
2022-08-07T20:34:54.189Z,74.14
2022-08-07T20:37:22.557Z,75.22
2022-08-07T20:40:04.156Z,74.25
2022-08-07T20:42:32.644Z,75.00
2022-08-07T20:44:59.402Z,74.60
2022-08-07T20:47:26.023Z,74.36
2022-08-07T20:50:12.610Z,74.65
2022-08-07T20:52:51.045Z,74.49
2022-08-07T20:55:20.740Z,75.80
2022-08-07T20:58:02.234Z,76.32
2022-08-07T21:00:42.888Z,75.83
2022-08-07T21:03:15.748Z,75.42
2022-08-07T21:05:56.117Z,75.56
2022-08-07T21:08:39.139Z,76.28
2022-08-07T21:11:12.446Z,76.85
2022-08-07T21:14:29.858Z,77.25
2022-08-07T21:16:56.321Z,77.01
2022-08-07T21:19:32.415Z,75.71
2022-08-07T21:22:20.350Z,77.54
2022-08-07T21:25:01.009Z,77.18
2022-08-07T21:27:55.680Z,76.92
2022-08-07T21:31:09.114Z,77.30
2022-08-07T21:34:16.428Z,77.53
2022-08-07T21:36:50.054Z,76.44
2022-08-07T21:39:45.609Z,77.11
2022-08-07T21:42:41.929Z,76.76
2022-08-07T21:46:03.593Z,77.70
2022-08-07T21:48:27.607Z,77.20
2022-08-07T21:51:19.751Z,78.01
2022-08-07T21:53:52.944Z,78.41
2022-08-07T21:56:48.074Z,78.19
2022-08-07T22:00:19.176Z,78.92
2022-08-07T22:03:08.409Z,78.90
2022-08-07T22:05:48.847Z,78.59
2022-08-07T22:08:18.325Z,79.20
2022-08-07T22:10:46.086Z,78.68
2022-08-07T22:13:13.915Z,79.30
2022-08-07T22:16:43.245Z,78.98
2022-08-07T22:19:05.092Z,78.25
2022-08-07T22:22:02.691Z,79.56
2022-08-07T22:24:54.615Z,79.09
2022-08-07T22:27:34.198Z,79.73
2022-08-07T22:30:19.055Z,79.42
2022-08-07T22:33:04.342Z,79.94
2022-08-07T22:35:54.745Z,80.09
2022-08-07T22:38:48.157Z,79.84
2022-08-07T22:41:19.937Z,79.03
2022-08-07T22:43:51.296Z,79.78
2022-08-07T22:47:03.860Z,80.49
2022-08-07T22:49:55.008Z,79.89
2022-08-07T22:52:37.065Z,79.53
2022-08-07T22:55:29.926Z,80.28
2022-08-07T22:58:37.858Z,80.64
2022-08-07T23:01:22.685Z,80.54
2022-08-07T23:04:16.321Z,80.87
2022-08-07T23:06:55.039Z,80.96
2022-08-07T23:10:04.524Z,81.45
2022-08-07T23:12:34.635Z,81.32
2022-08-07T23:16:05.608Z,81.64
2022-08-07T23:18:26.498Z,81.28
2022-08-07T23:21:43.333Z,82.03
2022-08-07T23:24:28.037Z,81.89
2022-08-07T23:26:58.339Z,80.90
2022-08-07T23:30:35.977Z,81.75
2022-08-07T23:34:21.200Z,81.78
2022-08-07T23:35:53.106Z,81.87
2022-08-07T23:38:54.814Z,82.06
2022-08-07T23:42:04.116Z,81.84
2022-08-07T23:44:59.062Z,81.47
2022-08-07T23:47:52.438Z,82.15
2022-08-07T23:50:33.415Z,82.06
2022-08-07T23:53:06.092Z,82.72
2022-08-07T23:55:51.946Z,82.53
2022-08-07T23:58:32.765Z,82.91
